• Join FlightAware (Why Join?)
  • Login
  • US Flag 
09:06PM EDT


 

Airport Tracker/Info


-or-


 

Live Flight TrackerFlight Track Log ✈ N401CG ✈ 01-May-2013 ✈ KLNR - KSTP

Flight Track Log - Related Links

Times and Time Zones

All times are in EDT time to prevent confusion due to time zone crossing. See the N401CG flight status page for this flight to view local times or setup timezone preferences in your user account.

Time Position Orientation Groundspeed Altitude Reporting Facility
EDT Latitude Longitude Course Direction KTS MPH feet Rate Location/Type
04:10PM 43.3306 -90.2939 324° Northwest 195 224 5,100  Level Chicago Center
04:11PM 43.3681 -90.3406 318° Northwest 187 215 7,300 2,160 Climbing Chicago Center
04:12PM 43.4081 -90.3994 313° West 192 221 9,600 2,160 Climbing Minneapolis Center
04:13PM 43.4408 -90.4556 309° West 195 224 11,700 1,620 Climbing Minneapolis Center
04:15PM 43.4811 -90.5192 311° West 211 243 13,000 1,080 Climbing Minneapolis Center
04:16PM 43.4488 -90.4654 324° Northwest  Level FlightAware Approximate
04:16PM 43.5253 -90.5919 310° West 235 270 14,000  Level Minneapolis Center
04:17PM 43.5728 -90.6711 310° West 257 296 14,000  Level Minneapolis Center
04:18PM 43.6214 -90.7508 310° West 259 298 14,000  Level Minneapolis Center
04:19PM 43.6664 -90.8247 310° West 261 300 14,000  Level Minneapolis Center
04:20PM 43.7150 -90.9047 310° West 261 300 14,000  Level Minneapolis Center
04:21PM 43.7628 -90.9850 310° West 260 299 14,000  Level Minneapolis Center
04:22PM 43.8114 -91.0653 310° West 260 299 14,000  Level Minneapolis Center
04:23PM 43.8594 -91.1469 309° West 260 299 14,000  Level Minneapolis Center
04:24PM 43.9075 -91.2269 310° West 259 298 14,000  Level Minneapolis Center
04:25PM 43.9531 -91.3014 310° West 260 299 14,000  Level Minneapolis Center
04:26PM 43.9914 -91.3642 310° West 260 299 14,000  Level Minneapolis Center
04:27PM 44.0478 -91.4614 309° West 259 298 14,000  Level Minneapolis Center
04:28PM 44.0961 -91.5453 309° West 260 299 14,000  Level Minneapolis Center
04:29PM 44.1406 -91.6239 308° West 261 300 14,000  Level Minneapolis Center
04:30PM 44.1883 -91.7094 308° West 262 302 14,000 -360 Level Minneapolis Center
04:31PM 44.2319 -91.7886 308° West 261 300 13,300 -1,260 Descending Minneapolis Center
04:32PM 44.2817 -91.8761 308° West 267 307 11,500 -1,560 Descending Minneapolis Center
04:33PM 44.3286 -91.9594 308° West 256 295 10,100 -1,320 Descending Minneapolis Center
04:34PM 44.3697 -92.0333 308° West 244 281 8,800 -1,320 Descending Minneapolis Center
04:35PM 44.4139 -92.1108 309° West 243 280 7,400 -1,260 Descending Minneapolis Center
04:36PM 44.4544 -92.1850 307° West 240 276 6,200 -1,260 Descending Minneapolis Center
04:37PM 44.4978 -92.2611 309° West 229 264 4,800 -1,020 Descending Minneapolis Center
04:38PM 44.5317 -92.3247 307° West 205 236 4,000 -360 Descending Minneapolis Center
04:40PM 44.5761 -92.4050 308° West 206 237 4,100  Climbing Minneapolis Center
04:41PM 44.6114 -92.4689 308° West 209 241 4,100  Level Minneapolis Center
04:42PM 44.6464 -92.5322 308° West 208 239 4,100  Level Minneapolis Center
04:43PM 44.6781 -92.5900 308° West 190 219 4,100 -240 Level Minneapolis Center
04:44PM 44.7069 -92.6494 304° West 187 215 3,700 -480 Descending Minneapolis Center
04:45PM 44.6911 -92.7339 255° West 180 207 3,100 -300 Descending Minneapolis Center
04:46PM 44.7017 -92.7953 284° West 166 191 3,100  Level Minneapolis Center
04:47PM 44.7228 -92.8517 298° West 165 190 3,100 -300 Level Minneapolis Center
04:48PM 44.7611 -92.8981 319° Northwest 192 221 2,600 -300 Descending Minneapolis Center
04:49PM 44.8092 -92.9436 326° Northwest 208 239 2,600  Level Minneapolis Center
04:50PM 44.8494 -92.9808 327° Northwest 127 146 2,600 -240 Level Minneapolis Center
04:51PM 44.8683 -92.9992 325° Northwest 86 99 2,200 -540 Descending Minneapolis Center
04:52PM 44.8900 -93.0189 327° Northwest 92 106 1,600 -540 Descending Minneapolis Center
04:53PM 44.9136 -93.0400 328° Northwest 99 114 1,100 -540 Descending Minneapolis Center
04:55PM 44.9346 -93.0603 314° West  Level Estimated
05:02PM 44.9346 -93.0603 130° Southeast  Level Estimated